Time,TemperatureF,DewpointF,PressureIn,WindDirection,WindDirectionDegrees,WindSpeedMPH,WindSpeedGustMPH,Humidity,HourlyPrecipIn,Conditions,Clouds,dailyrainin,SoftwareType,DateUTC
2013-06-20 00:02:00,51.0,49.0,30.17,WNW,294,0.0,0.0,94,0.00,,,0.01,,2013-06-20 04:02:00,
2013-06-20 00:11:00,51.0,49.0,30.18,WNW,295,0.0,0.0,94,0.00,,,0.01,,2013-06-20 04:11:00,
2013-06-20 00:23:00,51.0,50.0,30.18,WNW,294,0.0,0.0,95,0.00,,,0.01,,2013-06-20 04:23:00,
2013-06-20 00:34:00,50.0,49.0,30.18,WNW,294,0.0,1.0,95,0.00,,,0.01,,2013-06-20 04:34:00,
2013-06-20 00:43:00,50.0,49.0,30.18,WNW,294,0.0,0.0,95,0.00,,,0.01,,2013-06-20 04:43:00,
2013-06-20 00:53:00,50.0,49.0,30.19,WNW,294,0.0,0.0,95,0.00,,,0.01,,2013-06-20 04:53:00,
2013-06-20 01:02:00,50.0,49.0,30.19,WNW,294,0.0,0.0,95,0.00,,,0.01,,2013-06-20 05:02:00,
2013-06-20 01:12:00,49.0,48.0,30.19,WNW,295,0.0,0.0,95,0.00,,,0.01,,2013-06-20 05:12:00,
2013-06-20 01:22:00,49.0,48.0,30.19,WNW,294,0.0,0.0,95,0.00,,,0.01,,2013-06-20 05:22:00,
2013-06-20 01:33:00,49.0,48.0,30.19,WNW,294,0.0,0.0,96,0.00,,,0.01,,2013-06-20 05:33:00,
2013-06-20 01:44:00,48.0,47.0,30.20,WNW,294,0.0,0.0,96,0.00,,,0.01,,2013-06-20 05:44:00,
2013-06-20 01:52:00,48.0,47.0,30.20,WNW,293,0.0,0.0,96,0.00,,,0.01,,2013-06-20 05:52:00,
2013-06-20 02:02:00,48.0,47.0,30.20,WNW,294,0.0,0.0,96,0.00,,,0.01,,2013-06-20 06:02:00,
2013-06-20 02:11:00,48.0,47.0,30.19,WNW,295,0.0,0.0,96,0.00,,,0.01,,2013-06-20 06:11:00,
2013-06-20 02:22:00,48.0,47.0,30.20,WNW,293,0.0,0.0,96,0.00,,,0.01,,2013-06-20 06:22:00,
2013-06-20 02:34:00,48.0,47.0,30.20,WNW,294,0.0,0.0,96,0.00,,,0.01,,2013-06-20 06:34:00,
2013-06-20 02:43:00,48.0,47.0,30.20,WNW,294,0.0,0.0,97,0.00,,,0.01,,2013-06-20 06:43:00,
2013-06-20 02:53:00,47.0,46.0,30.20,WNW,294,0.0,0.0,97,0.00,,,0.01,,2013-06-20 06:53:00,
2013-06-20 03:01:00,47.0,46.0,30.21,WNW,295,0.0,0.0,97,0.00,,,0.01,,2013-06-20 07:01:00,
2013-06-20 03:12:00,47.0,46.0,30.21,WNW,295,0.0,0.0,97,0.00,,,0.01,,2013-06-20 07:12:00,
2013-06-20 03:22:00,47.0,46.0,30.21,WNW,294,0.0,0.0,97,0.00,,,0.01,,2013-06-20 07:22:00,
2013-06-20 03:34:00,47.0,46.0,30.22,WNW,295,0.0,0.0,97,0.00,,,0.01,,2013-06-20 07:34:00,
2013-06-20 03:44:00,47.0,46.0,30.22,WNW,294,0.0,0.0,97,0.00,,,0.01,,2013-06-20 07:44:00,
2013-06-20 03:52:00,46.0,45.0,30.22,WNW,295,0.0,0.0,97,0.00,,,0.01,,2013-06-20 07:52:00,
2013-06-20 04:02:00,46.0,45.0,30.22,WNW,295,0.0,0.0,97,0.00,,,0.01,,2013-06-20 08:02:00,
2013-06-20 04:11:00,46.0,45.0,30.22,WNW,293,0.0,0.0,97,0.00,,,0.01,,2013-06-20 08:11:00,
2013-06-20 04:22:00,46.0,45.0,30.22,WNW,293,0.0,0.0,97,0.00,,,0.01,,2013-06-20 08:22:00,
2013-06-20 04:34:00,46.0,45.0,30.23,WNW,295,0.0,0.0,97,0.00,,,0.01,,2013-06-20 08:34:00,
2013-06-20 04:43:00,46.0,45.0,30.23,WNW,294,0.0,0.0,98,0.00,,,0.01,,2013-06-20 08:43:00,
2013-06-20 04:53:00,46.0,45.0,30.23,WNW,294,0.0,0.0,97,0.00,,,0.01,,2013-06-20 08:53:00,
2013-06-20 05:02:00,46.0,45.0,30.23,WNW,295,0.0,0.0,97,0.00,,,0.01,,2013-06-20 09:02:00,
2013-06-20 05:12:00,45.0,44.0,30.23,WNW,294,0.0,0.0,98,0.00,,,0.01,,2013-06-20 09:12:00,
2013-06-20 05:22:00,45.0,44.0,30.24,WNW,294,0.0,0.0,98,0.00,,,0.01,,2013-06-20 09:22:00,
2013-06-20 05:33:00,45.0,44.0,30.24,WNW,295,0.0,0.0,98,0.00,,,0.01,,2013-06-20 09:33:00,
2013-06-20 05:42:00,45.0,44.0,30.25,WNW,293,0.0,0.0,98,0.00,,,0.01,,2013-06-20 09:42:00,
2013-06-20 05:52:00,45.0,44.0,30.25,WNW,293,0.0,0.0,98,0.00,,,0.01,,2013-06-20 09:52:00,
2013-06-20 06:02:00,45.0,44.0,30.25,WNW,295,0.0,0.0,98,0.00,,,0.01,,2013-06-20 10:02:00,
2013-06-20 06:11:00,45.0,44.0,30.26,WNW,294,0.0,0.0,98,0.00,,,0.01,,2013-06-20 10:11:00,
2013-06-20 06:22:00,45.0,44.0,30.26,WNW,295,0.0,0.0,98,0.00,,,0.01,,2013-06-20 10:22:00,
2013-06-20 06:34:00,45.0,44.0,30.27,WNW,294,0.0,0.0,98,0.00,,,0.01,,2013-06-20 10:34:00,
2013-06-20 06:43:00,45.0,44.0,30.27,WNW,294,0.0,0.0,98,0.00,,,0.01,,2013-06-20 10:43:00,
2013-06-20 06:53:00,46.0,45.0,30.27,WNW,294,0.0,0.0,98,0.00,,,0.01,,2013-06-20 10:53:00,
2013-06-20 07:02:00,46.0,46.0,30.27,WNW,295,0.0,0.0,99,0.00,,,0.01,,2013-06-20 11:02:00,
2013-06-20 07:12:00,47.0,47.0,30.27,WNW,294,0.0,0.0,99,0.00,,,0.01,,2013-06-20 11:12:00,
2013-06-20 07:22:00,47.0,47.0,30.27,WNW,294,0.0,0.0,99,0.00,,,0.01,,2013-06-20 11:22:00,
2013-06-20 07:34:00,48.0,48.0,30.28,WNW,294,0.0,0.0,99,0.00,,,0.01,,2013-06-20 11:34:00,
2013-06-20 07:43:00,50.0,50.0,30.28,WNW,294,0.0,0.0,99,0.00,,,0.01,,2013-06-20 11:43:00,
2013-06-20 07:53:00,51.0,51.0,30.28,WNW,295,0.0,0.0,99,0.00,,,0.01,,2013-06-20 11:53:00,
2013-06-20 08:02:00,52.0,52.0,30.28,WNW,294,0.0,0.0,99,0.00,,,0.01,,2013-06-20 12:02:00,
2013-06-20 08:12:00,53.0,53.0,30.28,WNW,295,0.0,0.0,100,0.00,,,0.01,,2013-06-20 12:12:00,
2013-06-20 08:22:00,54.0,54.0,30.29,WNW,294,0.0,0.0,100,0.00,,,0.00,,2013-06-20 12:22:00,
2013-06-20 08:34:00,54.0,54.0,30.29,WNW,295,0.0,0.0,100,0.00,,,0.00,,2013-06-20 12:34:00,
2013-06-20 08:43:00,55.0,55.0,30.29,WNW,295,0.0,1.0,100,0.00,,,0.00,,2013-06-20 12:43:00,
2013-06-20 08:53:00,56.0,56.0,30.29,WNW,300,0.0,1.0,99,0.00,,,0.00,,2013-06-20 12:53:00,
2013-06-20 09:02:00,57.0,54.0,30.29,WNW,300,0.0,0.0,91,0.00,,,0.00,,2013-06-20 13:02:00,
2013-06-20 09:11:00,59.0,54.0,30.28,WNW,300,0.0,0.0,85,0.00,,,0.00,,2013-06-20 13:11:00,
2013-06-20 09:22:00,60.0,53.0,30.28,WNW,300,0.0,1.0,78,0.00,,,0.00,,2013-06-20 13:22:00,
2013-06-20 09:33:00,62.0,53.0,30.28,WNW,299,0.0,1.0,73,0.00,,,0.00,,2013-06-20 13:33:00,
2013-06-20 09:42:00,64.0,53.0,30.28,WNW,287,0.0,1.0,68,0.00,,,0.00,,2013-06-20 13:42:00,
2013-06-20 09:53:00,66.0,57.0,30.28,WNW,287,0.0,0.0,73,0.00,,,0.00,,2013-06-20 13:53:00,
2013-06-20 10:02:00,67.0,55.0,30.28,WNW,286,0.0,1.0,65,0.00,,,0.00,,2013-06-20 14:02:00,
2013-06-20 10:11:00,70.0,55.0,30.27,WNW,287,0.0,1.0,60,0.00,,,0.00,,2013-06-20 14:11:00,
2013-06-20 10:22:00,72.0,57.0,30.27,WNW,287,0.0,1.0,59,0.00,,,0.00,,2013-06-20 14:22:00,
2013-06-20 10:32:00,72.0,53.0,30.27,WNW,287,0.0,1.0,51,0.00,,,0.00,,2013-06-20 14:32:00,
2013-06-20 10:42:00,74.0,54.0,30.27,WNW,288,0.0,1.0,49,0.00,,,0.00,,2013-06-20 14:42:00,
2013-06-20 11:11:00,75.0,53.0,30.27,WNW,287,2.0,3.0,47,0.00,,,0.00,,2013-06-20 15:11:00,
2013-06-20 11:22:00,74.0,54.0,30.27,West,271,0.0,4.0,49,0.00,,,0.00,,2013-06-20 15:22:00,
2013-06-20 11:33:00,75.0,55.0,30.27,West,281,0.0,2.0,49,0.00,,,0.00,,2013-06-20 15:33:00,
2013-06-20 12:02:00,77.0,57.0,30.27,WNW,299,0.0,4.0,51,0.00,,,0.00,,2013-06-20 16:02:00,
2013-06-20 12:12:00,76.0,52.0,30.27,NW,307,1.0,4.0,44,0.00,,,0.00,,2013-06-20 16:12:00,
2013-06-20 12:22:00,77.0,56.0,30.27,WNW,302,0.0,2.0,49,0.00,,,0.00,,2013-06-20 16:22:00,
2013-06-20 12:33:00,77.0,51.0,30.26,WNW,291,0.0,2.0,41,0.00,,,0.00,,2013-06-20 16:33:00,
2013-06-20 12:43:00,78.0,52.0,30.26,WNW,303,1.0,3.0,40,0.00,,,0.00,,2013-06-20 16:43:00,
2013-06-20 13:02:00,77.0,53.0,30.27,West,266,0.0,3.0,44,0.00,,,0.00,,2013-06-20 17:02:00,
2013-06-20 13:12:00,79.0,53.0,30.26,WNW,285,0.0,3.0,41,0.00,,,0.00,,2013-06-20 17:12:00,
2013-06-20 13:43:00,78.0,55.0,30.26,WNW,293,0.0,6.0,45,0.00,,,0.00,,2013-06-20 17:43:00,
2013-06-20 14:01:00,81.0,52.0,30.25,WNW,287,0.0,2.0,37,0.00,,,0.00,,2013-06-20 18:01:00,
2013-06-20 14:11:00,81.0,52.0,30.25,NW,321,1.0,4.0,36,0.00,,,0.00,,2013-06-20 18:11:00,
2013-06-20 14:22:00,79.0,55.0,30.24,NW,318,0.0,4.0,44,0.00,,,0.00,,2013-06-20 18:22:00,
2013-06-20 14:33:00,79.0,52.0,30.24,NW,322,1.0,4.0,39,0.00,,,0.00,,2013-06-20 18:33:00,
2013-06-20 14:43:00,81.0,58.0,30.24,East,96,0.0,3.0,45,0.00,,,0.00,,2013-06-20 18:43:00,
2013-06-20 15:01:00,81.0,55.0,30.24,NW,308,0.0,4.0,41,0.00,,,0.00,,2013-06-20 19:01:00,
2013-06-20 15:11:00,81.0,54.0,30.24,WNW,285,1.0,3.0,40,0.00,,,0.00,,2013-06-20 19:11:00,
2013-06-20 15:22:00,80.0,55.0,30.24,NW,304,0.0,3.0,42,0.00,,,0.00,,2013-06-20 19:22:00,
2013-06-20 15:34:00,81.0,58.0,30.24,WNW,285,0.0,2.0,46,0.00,,,0.00,,2013-06-20 19:34:00,
2013-06-20 15:43:00,81.0,56.0,30.23,West,281,1.0,3.0,42,0.00,,,0.00,,2013-06-20 19:43:00,
2013-06-20 15:52:00,80.0,53.0,30.23,WNW,284,0.0,2.0,40,0.00,,,0.00,,2013-06-20 19:52:00,
2013-06-20 16:02:00,79.0,52.0,30.23,WNW,294,1.0,2.0,39,0.00,,,0.00,,2013-06-20 20:02:00,
2013-06-20 16:11:00,79.0,50.0,30.23,WNW,284,1.0,3.0,37,0.00,,,0.00,,2013-06-20 20:11:00,
2013-06-20 16:22:00,79.0,53.0,30.22,West,273,0.0,3.0,41,0.00,,,0.00,,2013-06-20 20:22:00,
2013-06-20 16:33:00,79.0,53.0,30.22,West,271,0.0,2.0,41,0.00,,,0.00,,2013-06-20 20:33:00,
2013-06-20 16:43:00,79.0,52.0,30.22,West,273,0.0,2.0,39,0.00,,,0.00,,2013-06-20 20:43:00,
2013-06-20 17:01:00,78.0,53.0,30.22,East,86,0.0,2.0,42,0.00,,,0.00,,2013-06-20 21:01:00,